Time;durP1;ratioP1;P1;durP2;ratioP2;P2;SDS_P1;SDS_P2;PMS_P1;PMS_P2;Temp;Humidity;BMP_temperature;BMP_pressure;BME280_temperature;BME280_humidity;BME280_pressure;Samples;Min_cycle;Max_cycle;Signal;HPM_P1;HPM_P2
2022/01/01 00:03:08;;;;;;;13.13;11.70;;;;;;;12.40;87.22;101039.41;10411750;28;20053;-60
2022/01/01 00:08:11;;;;;;;16.02;12.73;;;;;;;12.48;87.37;101069.06;10390762;28;20119;-61
2022/01/01 00:13:13;;;;;;;12.67;11.43;;;;;;;12.52;86.89;101054.50;10401337;28;20049;-60
2022/01/01 00:18:16;;;;;;;11.43;10.25;;;;;;;12.44;87.52;101051.56;10388961;28;20049;-63
2022/01/01 00:23:18;;;;;;;9.30;8.18;;;;;;;12.33;87.78;101045.22;10387927;28;20048;-60
2022/01/01 00:28:19;;;;;;;8.52;7.68;;;;;;;12.40;88.01;101045.63;10410037;28;20048;-60
2022/01/01 00:33:21;;;;;;;9.32;7.95;;;;;;;12.44;87.97;101040.88;10400929;28;20059;-61
2022/01/01 00:38:23;;;;;;;9.38;8.48;;;;;;;12.44;87.82;101035.56;10395078;28;20063;-61
2022/01/01 00:43:25;;;;;;;9.32;7.88;;;;;;;12.27;88.11;101029.66;10410424;28;20052;-59
2022/01/01 00:48:26;;;;;;;10.85;8.75;;;;;;;12.20;88.65;101023.09;10397227;28;20056;-62
2022/01/01 00:53:45;;;;;;;10.85;9.27;;;;;;;12.32;88.51;101048.84;10398370;28;20059;-65
2022/01/01 00:58:46;;;;;;;10.52;9.05;;;;;;;12.34;88.40;101046.06;10419619;28;20045;-62
2022/01/01 01:03:48;;;;;;;9.50;8.52;;;;;;;12.31;88.09;101043.63;10421247;28;20135;-61
2022/01/01 01:08:51;;;;;;;10.70;9.15;;;;;;;12.38;88.11;101044.88;10418484;28;20056;-62
2022/01/01 01:13:59;;;;;;;10.77;9.07;;;;;;;12.32;88.13;101053.34;10423312;28;20233;-63
2022/01/01 01:19:00;;;;;;;9.60;8.70;;;;;;;12.37;88.11;101054.72;10419643;28;20055;-62
2022/01/01 01:24:02;;;;;;;8.90;8.00;;;;;;;12.37;88.15;101046.69;10417361;28;20059;-61
2022/01/01 01:29:05;;;;;;;9.60;8.18;;;;;;;12.35;87.82;101043.28;10421397;28;20278;-62
2022/01/01 01:34:06;;;;;;;11.73;8.38;;;;;;;12.38;87.80;101055.53;10419239;28;20053;-61
2022/01/01 01:39:07;;;;;;;9.70;8.70;;;;;;;12.40;87.59;101071.44;10417144;28;20163;-62
2022/01/01 01:44:23;;;;;;;10.43;8.18;;;;;;;12.36;87.85;101078.84;10415669;28;20134;-60
2022/01/01 01:49:26;;;;;;;8.43;7.18;;;;;;;12.25;88.20;101068.09;10421403;28;20065;-60
2022/01/01 01:54:27;;;;;;;7.05;6.07;;;;;;;12.29;88.15;101088.28;10420167;28;20049;-60
2022/01/01 01:59:30;;;;;;;7.32;6.38;;;;;;;12.27;88.33;101092.88;10418614;28;20076;-60
2022/01/01 02:04:31;;;;;;;8.07;7.28;;;;;;;12.27;88.01;101077.72;10417338;28;20041;-61
2022/01/01 02:09:34;;;;;;;9.43;7.07;;;;;;;12.43;87.49;101087.25;10416448;28;20090;-61
2022/01/01 02:20:03;;;;;;;7.00;6.22;;;;;;;12.42;87.01;101085.56;10417541;28;20525;-60
2022/01/01 02:25:06;;;;;;;6.57;5.95;;;;;;;12.46;86.79;101070.97;10416598;28;20102;-60
2022/01/01 02:30:11;;;;;;;7.13;5.78;;;;;;;12.42;87.20;101085.56;10418355;28;20160;-60
2022/01/01 02:35:16;;;;;;;7.22;6.38;;;;;;;12.44;86.96;101075.59;10411890;28;20240;-60
2022/01/01 02:40:18;;;;;;;8.73;6.60;;;;;;;12.41;87.25;101083.84;10418413;28;20071;-61
2022/01/01 02:45:20;;;;;;;6.53;5.82;;;;;;;12.43;87.00;101087.25;10420911;28;20171;-61
2022/01/01 02:50:22;;;;;;;7.78;6.30;;;;;;;12.30;87.30;101072.16;10418370;28;20079;-61
2022/01/01 02:55:23;;;;;;;6.60;5.93;;;;;;;12.32;87.50;101078.22;10419176;28;20717;-61
2022/01/01 03:00:24;;;;;;;6.68;6.03;;;;;;;12.29;87.83;101089.13;10421355;28;20120;-61
2022/01/01 03:05:27;;;;;;;6.43;5.68;;;;;;;12.24;88.19;101091.28;10424685;28;20140;-62
2022/01/01 03:10:28;;;;;;;7.25;6.00;;;;;;;12.18;88.04;101089.09;10411500;28;20052;-62
2022/01/01 03:15:29;;;;;;;7.15;6.45;;;;;;;12.17;88.02;101090.03;10408442;28;20541;-61
2022/01/01 03:20:31;;;;;;;6.80;6.20;;;;;;;12.24;87.93;101095.78;10418381;28;20079;-61
2022/01/01 03:25:32;;;;;;;6.35;5.75;;;;;;;12.11;88.27;101078.00;10418064;28;20558;-63
2022/01/01 03:30:34;;;;;;;8.43;6.93;;;;;;;12.16;88.10;101072.31;10421002;28;20120;-61
2022/01/01 03:35:35;;;;;;;8.60;7.10;;;;;;;12.20;87.97;101081.81;10446613;22;20502;-64
2022/01/01 03:40:36;;;;;;;9.20;6.82;;;;;;;12.23;87.80;101076.22;10478460;28;20512;-65
2022/01/01 03:45:38;;;;;;;8.32;6.45;;;;;;;12.16;88.00;101070.50;10488408;27;20131;-65
2022/01/01 03:50:40;;;;;;;10.73;8.38;;;;;;;12.24;87.80;101082.44;10484373;27;20118;-64
2022/01/01 03:55:42;;;;;;;8.90;7.70;;;;;;;12.16;87.95;101077.66;10486668;27;20041;-64
2022/01/01 04:00:43;;;;;;;9.23;8.23;;;;;;;12.17;87.86;101100.72;10482052;27;20135;-64
2022/01/01 04:05:45;;;;;;;10.30;8.23;;;;;;;12.14;87.37;101104.44;10489616;27;20714;-65
2022/01/01 04:10:47;;;;;;;9.40;8.50;;;;;;;12.15;87.39;101105.31;10492267;27;20048;-64
2022/01/01 04:15:49;;;;;;;10.48;8.73;;;;;;;12.05;87.49;101093.63;10489067;27;20044;-64
2022/01/01 04:20:50;;;;;;;9.07;7.97;;;;;;;12.07;88.02;101107.69;10492679;27;20450;-64
2022/01/01 04:25:52;;;;;;;9.73;8.82;;;;;;;12.19;87.20;101106.81;10495965;27;20749;-64
2022/01/01 04:30:54;;;;;;;10.88;8.80;;;;;;;12.08;87.26;101114.75;10491527;27;20044;-64
2022/01/01 04:35:55;;;;;;;11.00;9.05;;;;;;;12.09;87.88;101116.44;10487551;27;20058;-65
2022/01/01 04:40:57;;;;;;;11.20;9.50;;;;;;;12.12;87.10;101124.22;10499202;27;20555;-65
2022/01/01 04:45:58;;;;;;;10.30;8.65;;;;;;;12.22;86.49;101129.72;10489509;27;20044;-65
2022/01/01 04:50:59;;;;;;;10.10;8.95;;;;;;;12.19;86.53;101125.50;10485360;27;20064;-64
2022/01/01 04:56:06;;;;;;;8.48;7.65;;;;;;;12.27;86.07;101128.44;10490277;27;20840;-65
2022/01/01 05:01:07;;;;;;;10.70;8.23;;;;;;;12.30;85.79;101114.84;10484010;27;20058;-65
2022/01/01 05:06:09;;;;;;;9.25;8.35;;;;;;;12.33;85.08;101108.44;10490069;27;20049;-64
2022/01/01 05:11:10;;;;;;;9.40;8.25;;;;;;;12.32;85.51;101109.41;10485734;27;20039;-64
2022/01/01 05:16:16;;;;;;;8.93;7.63;;;;;;;12.28;85.29;101111.47;10485736;27;20127;-64
2022/01/01 05:21:17;;;;;;;9.20;7.40;;;;;;;12.24;85.50;101104.63;10490646;27;20044;-64
2022/01/01 05:26:18;;;;;;;8.32;7.47;;;;;;;12.17;85.58;101103.38;10487969;27;20044;-64
2022/01/01 05:31:20;;;;;;;9.98;8.05;;;;;;;12.26;85.52;101117.88;10482858;27;20044;-65
2022/01/01 05:36:22;;;;;;;7.53;6.75;;;;;;;12.25;85.64;101122.38;10489560;27;20095;-64
2022/01/01 05:41:23;;;;;;;12.55;8.68;;;;;;;12.25;85.67;101122.38;10487690;27;20051;-64
2022/01/01 05:46:24;;;;;;;8.52;7.50;;;;;;;12.37;84.96;101125.94;10488105;27;20087;-65
2022/01/01 05:51:26;;;;;;;10.52;8.15;;;;;;;12.35;84.85;101120.69;10486876;27;20063;-64
2022/01/01 05:56:27;;;;;;;10.88;8.13;;;;;;;12.40;84.95;101119.50;10493495;27;20546;-64
2022/01/01 06:01:28;;;;;;;9.98;9.00;;;;;;;12.32;85.18;101112.91;10487523;27;20827;-64
2022/01/01 06:06:30;;;;;;;9.50;8.50;;;;;;;12.30;85.00;101116.69;10482732;27;20694;-65
2022/01/01 06:11:33;;;;;;;9.15;8.02;;;;;;;12.29;85.22;101107.81;10490599;27;20067;-65
2022/01/01 06:16:34;;;;;;;11.40;9.25;;;;;;;12.24;85.04;101109.97;10490003;27;20135;-65
2022/01/01 06:21:35;;;;;;;10.88;8.88;;;;;;;12.19;85.59;101112.16;10481608;27;20048;-64
2022/01/01 06:26:37;;;;;;;10.02;8.93;;;;;;;12.28;85.55;101119.47;10482643;27;20727;-64
2022/01/01 06:31:38;;;;;;;10.32;9.25;;;;;;;12.19;85.74;101122.81;10487533;27;20041;-65
2022/01/01 06:36:41;;;;;;;9.85;8.65;;;;;;;12.15;86.07;101110.66;10486190;27;20056;-64
2022/01/01 06:41:42;;;;;;;10.63;9.35;;;;;;;12.08;86.07;101109.41;10480361;27;20538;-64
2022/01/01 06:46:43;;;;;;;10.00;8.32;;;;;;;12.00;86.64;101101.97;10484386;27;20722;-63
2022/01/01 06:51:45;;;;;;;12.70;9.82;;;;;;;11.88;87.20;101103.66;10486721;27;20114;-64
2022/01/01 06:56:46;;;;;;;12.23;8.93;;;;;;;11.88;87.76;101130.34;10491891;27;20052;-64
2022/01/01 07:01:48;;;;;;;12.07;8.77;;;;;;;11.91;87.66;101138.13;10501897;27;20121;-63
2022/01/01 07:06:50;;;;;;;11.90;9.35;;;;;;;11.88;87.79;101146.34;10497347;27;20105;-63
2022/01/01 07:11:51;;;;;;;9.65;8.65;;;;;;;11.87;87.79;101160.66;10506157;27;20055;-63
2022/01/01 07:16:53;;;;;;;12.85;10.43;;;;;;;11.92;87.94;101174.53;10504272;27;20052;-61
2022/01/01 07:21:59;;;;;;;13.63;10.35;;;;;;;11.97;87.74;101174.22;10497763;27;20052;-64
2022/01/01 07:27:01;;;;;;;12.15;9.75;;;;;;;11.99;87.48;101188.31;10506772;27;20044;-64
2022/01/01 07:32:03;;;;;;;12.32;9.82;;;;;;;12.05;86.97;101193.19;10502785;27;20043;-64
2022/01/01 07:37:04;;;;;;;10.18;9.18;;;;;;;12.01;87.14;101216.59;10500733;27;20052;-63
2022/01/01 07:42:06;;;;;;;10.30;9.15;;;;;;;11.95;87.54;101219.69;10509214;27;20047;-64
2022/01/01 07:47:07;;;;;;;11.40;10.00;;;;;;;12.00;87.32;101233.56;10504911;27;20051;-62
2022/01/01 07:52:09;;;;;;;12.25;10.93;;;;;;;11.95;87.60;101238.38;10501378;27;20544;-63
2022/01/01 07:57:11;;;;;;;11.65;10.07;;;;;;;11.92;87.68;101233.22;10501930;27;20277;-63
2022/01/01 08:02:12;;;;;;;11.57;10.35;;;;;;;11.87;88.16;101240.69;10502354;27;20704;-62
2022/01/01 08:07:13;;;;;;;12.07;9.80;;;;;;;11.83;88.10;101233.88;10504816;27;20127;-62
2022/01/01 08:12:35;;;;;;;13.05;9.15;;;;;;;11.94;87.95;101231.31;10502114;27;20060;-64
2022/01/01 08:17:37;;;;;;;10.38;9.20;;;;;;;12.11;87.27;101247.94;10501577;27;20426;-63
2022/01/01 08:22:38;;;;;;;10.35;8.43;;;;;;;12.11;87.03;101242.63;10495636;27;20040;-63
2022/01/01 08:27:40;;;;;;;9.85;8.93;;;;;;;12.04;87.00;101226.19;10501727;27;20418;-63
2022/01/01 08:32:41;;;;;;;14.50;10.60;;;;;;;12.02;87.06;101220.97;10505972;27;20046;-63
2022/01/01 08:37:43;;;;;;;11.48;9.70;;;;;;;11.96;87.56;101231.22;10504006;27;20051;-63
2022/01/01 08:42:44;;;;;;;11.48;9.00;;;;;;;11.93;87.47;101224.28;10503788;27;20051;-64
2022/01/01 08:47:46;;;;;;;12.45;9.00;;;;;;;11.93;87.82;101220.75;10503577;27;20059;-65
2022/01/01 08:52:48;;;;;;;11.98;9.65;;;;;;;12.07;87.08;101233.13;10503869;27;20048;-64
2022/01/01 08:57:49;;;;;;;10.75;8.88;;;;;;;12.11;86.84;101222.09;10502859;27;20059;-64
2022/01/01 09:02:51;;;;;;;9.52;8.52;;;;;;;12.22;86.25;101213.34;10497869;27;20561;-64
2022/01/01 09:07:58;;;;;;;9.57;8.30;;;;;;;12.09;86.68;101218.72;10496108;27;20067;-64
2022/01/01 09:12:59;;;;;;;9.50;8.52;;;;;;;12.08;86.65;101210.81;10501530;27;20079;-64
2022/01/01 09:18:00;;;;;;;11.02;8.70;;;;;;;12.28;86.08;101223.59;10506476;27;20048;-64
2022/01/01 09:23:02;;;;;;;9.65;8.43;;;;;;;12.36;85.00;101221.19;10501064;27;20050;-65
2022/01/01 09:28:03;;;;;;;9.75;8.85;;;;;;;12.30;85.66;101224.31;10502200;27;20056;-65
2022/01/01 09:33:05;;;;;;;9.82;8.82;;;;;;;12.44;85.11;101222.47;10501565;27;20051;-64
2022/01/01 09:38:06;;;;;;;10.82;9.38;;;;;;;12.21;85.48;101222.31;10497215;27;20059;-66
2022/01/01 09:43:10;;;;;;;11.52;10.07;;;;;;;12.14;86.13;101219.22;10496786;27;20036;-65
2022/01/01 09:48:11;;;;;;;12.63;10.00;;;;;;;12.19;85.99;101209.09;10490513;27;20036;-64
2022/01/01 09:53:13;;;;;;;11.52;10.15;;;;;;;12.06;86.53;101226.09;10490313;27;20570;-65
2022/01/01 09:58:14;;;;;;;12.70;10.32;;;;;;;12.11;86.57;101226.59;10493008;27;20050;-65
2022/01/01 10:03:16;;;;;;;11.70;10.32;;;;;;;12.06;86.58;101229.59;10499969;27;20077;-65
2022/01/01 10:08:23;;;;;;;10.93;9.70;;;;;;;12.18;86.08;101233.22;10501625;27;20056;-66
2022/01/01 10:13:32;;;;;;;11.48;10.27;;;;;;;12.26;85.66;101236.16;10485765;27;20056;-65
2022/01/01 10:18:36;;;;;;;10.18;9.18;;;;;;;12.28;85.30;101238.72;10503466;27;20043;-64
2022/01/01 10:23:41;;;;;;;13.57;10.73;;;;;;;12.23;85.55;101244.41;10499811;27;20070;-66
2022/01/01 10:28:42;;;;;;;11.63;9.65;;;;;;;12.29;85.68;101230.59;10504196;27;20058;-65
2022/01/01 10:33:45;;;;;;;13.75;10.15;;;;;;;12.32;85.05;101235.72;10496328;27;20422;-64
2022/01/01 10:38:47;;;;;;;11.05;9.95;;;;;;;12.50;84.46;101232.69;10478132;27;20060;-64
2022/01/01 10:43:50;;;;;;;12.50;10.05;;;;;;;12.63;84.23;101217.47;10498832;27;20048;-64
2022/01/01 10:48:57;;;;;;;13.10;10.50;;;;;;;12.73;82.79;101226.50;10488192;27;20135;-64
2022/01/01 10:54:02;;;;;;;11.32;10.05;;;;;;;12.69;83.17;101233.03;10487034;27;20139;-64
2022/01/01 10:59:04;;;;;;;13.07;11.05;;;;;;;12.73;82.82;101226.50;10487841;27;20070;-63
2022/01/01 11:04:07;;;;;;;13.65;12.05;;;;;;;12.87;82.26;101229.97;10488267;27;20429;-64
2022/01/01 11:09:13;;;;;;;12.10;10.73;;;;;;;12.88;81.52;101223.66;10482329;27;20051;-64
2022/01/01 11:14:15;;;;;;;13.38;10.63;;;;;;;12.87;81.61;101219.28;10492122;27;20048;-62
2022/01/01 11:19:17;;;;;;;12.30;10.68;;;;;;;12.91;81.35;101220.78;10493179;27;20054;-63
2022/01/01 11:24:19;;;;;;;13.88;10.98;;;;;;;12.97;81.02;101225.66;10476696;27;20047;-64
2022/01/01 11:29:21;;;;;;;11.52;10.18;;;;;;;12.81;81.11;101209.91;10501492;27;20494;-63
2022/01/01 11:34:24;;;;;;;13.52;10.63;;;;;;;12.80;81.59;101205.53;10501064;27;20506;-64
2022/01/01 11:39:27;;;;;;;12.98;11.43;;;;;;;12.71;81.30;101199.03;10494674;27;20067;-64
2022/01/01 11:44:30;;;;;;;13.05;10.25;;;;;;;12.77;81.60;101191.56;10487799;27;20060;-63
2022/01/01 11:49:34;;;;;;;12.57;10.02;;;;;;;12.78;81.58;101193.28;10483540;27;20052;-64
2022/01/01 11:55:00;;;;;;;12.95;11.05;;;;;;;12.83;81.04;101180.41;10498411;27;20070;-64
2022/01/01 12:00:12;;;;;;;13.07;10.50;;;;;;;12.99;80.70;101166.75;10506307;27;20044;-63
2022/01/01 12:05:20;;;;;;;10.68;8.93;;;;;;;13.03;80.54;101147.69;10480042;27;20044;-64
2022/01/01 12:10:27;;;;;;;10.57;8.85;;;;;;;12.97;80.23;101134.78;10496194;27;20127;-63
2022/01/01 12:15:49;;;;;;;10.80;8.30;;;;;;;13.07;80.28;101125.06;10476551;27;20044;-64
2022/01/01 12:21:00;;;;;;;9.50;8.00;;;;;;;12.95;79.54;101115.34;10468790;27;20052;-64
2022/01/01 12:26:12;;;;;;;8.68;7.82;;;;;;;13.02;79.95;101123.75;10510051;27;20483;-63
2022/01/01 12:31:21;;;;;;;11.38;9.35;;;;;;;12.95;80.11;101115.34;10500825;27;20052;-63
2022/01/01 12:36:26;;;;;;;12.68;9.10;;;;;;;12.87;80.96;101110.59;10513839;27;20059;-63
2022/01/01 12:41:36;;;;;;;11.27;9.00;;;;;;;12.86;80.83;101116.03;10488627;27;20128;-64
2022/01/01 12:46:43;;;;;;;12.55;9.90;;;;;;;12.85;81.28;101115.19;10475312;27;20517;-63
2022/01/01 12:51:45;;;;;;;11.63;9.88;;;;;;;12.95;80.90;101117.16;10504542;27;20063;-63
2022/01/01 12:56:47;;;;;;;10.30;8.20;;;;;;;13.03;80.83;101112.94;10497576;27;20049;-63
2022/01/01 13:01:51;;;;;;;9.82;8.32;;;;;;;13.19;80.49;101106.41;10496639;27;20063;-68
2022/01/01 13:06:54;;;;;;;;;;;;;;;13.26;79.09;101080.88;10480871;27;20051;-65
2022/01/01 13:12:01;;;;;;;11.93;9.48;;;;;;;13.27;78.21;101066.56;10498346;27;20079;-67
2022/01/01 13:17:04;;;;;;;11.32;9.32;;;;;;;13.43;78.45;101066.19;10499006;27;20148;-65
2022/01/01 13:22:07;;;;;;;9.65;8.75;;;;;;;13.45;77.99;101064.28;10496056;27;20055;-64
2022/01/01 13:27:09;;;;;;;10.55;9.57;;;;;;;13.39;78.08;101070.09;10500137;27;20044;-64
2022/01/01 13:32:10;;;;;;;10.50;8.68;;;;;;;13.38;77.96;101061.22;10493692;27;20191;-66
2022/01/01 13:37:18;;;;;;;9.82;8.82;;;;;;;13.25;78.49;101072.00;10475452;27;20052;-66
2022/01/01 13:42:19;;;;;;;10.70;8.82;;;;;;;13.14;78.74;101071.16;10496347;27;20058;-65
2022/01/01 13:47:29;;;;;;;10.27;9.25;;;;;;;13.12;79.47;101057.03;10515486;27;20071;-63
2022/01/01 13:52:34;;;;;;;11.20;8.85;;;;;;;13.09;79.38;101048.31;10506233;27;20697;-63
2022/01/01 13:57:40;;;;;;;;;;;;;;;13.16;79.45;101040.66;10485544;27;20056;-64
2022/01/01 14:02:44;;;;;;;11.93;8.38;;;;;;;13.25;79.64;101031.06;10494052;27;20085;-63
2022/01/01 14:07:46;;;;;;;10.38;9.00;;;;;;;13.27;79.55;101039.81;10488128;27;20509;-63
2022/01/01 14:12:50;;;;;;;10.60;9.15;;;;;;;13.11;79.57;101039.31;10491657;27;20139;-62
2022/01/01 14:17:59;;;;;;;10.18;9.13;;;;;;;13.17;79.81;101028.16;10485469;27;20047;-61
2022/01/01 14:23:04;;;;;;;9.85;7.65;;;;;;;13.11;79.80;101028.63;10486434;27;20498;-64
2022/01/01 14:28:09;;;;;;;10.82;8.63;;;;;;;13.12;79.69;101031.19;10481811;27;20193;-63
2022/01/01 14:33:12;;;;;;;10.57;7.90;;;;;;;13.07;79.93;101036.03;10490390;27;20049;-65
2022/01/01 14:38:14;;;;;;;8.82;7.55;;;;;;;13.06;79.92;101035.19;10504038;27;20139;-64
2022/01/01 14:43:15;;;;;;;9.13;7.82;;;;;;;13.08;79.81;101043.09;10489669;27;20048;-65
2022/01/01 14:48:42;;;;;;;10.27;8.10;;;;;;;13.11;80.46;101042.00;10484130;27;20048;-63
2022/01/01 14:53:57;;;;;;;8.75;7.85;;;;;;;13.11;80.14;101033.97;10493574;27;20058;-64
2022/01/01 14:59:04;;;;;;;9.80;7.75;;;;;;;13.15;80.08;101044.31;10489324;27;20046;-64
2022/01/01 15:04:05;;;;;;;9.20;7.70;;;;;;;13.12;80.12;101030.31;10501034;27;20036;-63
2022/01/01 15:09:06;;;;;;;10.07;7.70;;;;;;;13.16;80.27;101031.78;10480449;27;20055;-64
2022/01/01 15:14:08;;;;;;;11.90;9.38;;;;;;;13.15;80.06;101032.75;10476167;27;20048;-62
2022/01/01 15:19:11;;;;;;;8.63;7.13;;;;;;;13.08;79.90;101035.91;10493292;27;20603;-64
2022/01/01 15:24:18;;;;;;;9.20;6.68;;;;;;;13.06;80.05;101037.88;10499496;27;20060;-63
2022/01/01 15:34:48;;;;;;;8.60;6.32;;;;;;;13.07;80.39;101049.38;10492817;27;20498;-63
2022/01/01 15:39:52;;;;;;;6.63;5.97;;;;;;;13.03;80.40;101026.53;10490038;27;20047;-66
2022/01/01 15:44:54;;;;;;;8.38;5.85;;;;;;;13.10;79.80;101033.13;10486029;27;20055;-64
2022/01/01 15:49:56;;;;;;;10.02;7.35;;;;;;;13.11;79.88;101031.31;10484330;27;20561;-64
2022/01/01 15:54:57;;;;;;;10.73;6.65;;;;;;;13.07;80.01;101023.50;10478415;27;20416;-64
2022/01/01 16:00:03;;;;;;;9.77;7.15;;;;;;;13.03;80.40;101034.56;10485650;27;20529;-63
2022/01/01 16:05:04;;;;;;;9.85;7.35;;;;;;;13.00;80.89;101043.69;10484073;27;20131;-63
2022/01/01 16:10:07;;;;;;;9.45;6.75;;;;;;;13.01;81.07;101033.84;10487191;27;20052;-63
2022/01/01 16:15:10;;;;;;;7.88;6.97;;;;;;;12.96;80.98;101034.22;10484576;27;20051;-65
2022/01/01 16:20:11;;;;;;;9.55;7.80;;;;;;;12.89;81.29;101031.13;10482440;27;20464;-64
2022/01/01 16:25:17;;;;;;;10.55;8.73;;;;;;;12.83;82.01;101030.78;10493444;27;20056;-65
2022/01/01 16:30:21;;;;;;;9.80;8.65;;;;;;;12.73;82.02;101007.47;10481096;27;20082;-65
2022/01/01 16:35:22;;;;;;;16.05;13.02;;;;;;;12.65;82.59;101012.53;10463421;27;20093;-64
2022/01/01 16:40:24;;;;;;;9.63;8.60;;;;;;;12.58;83.28;101019.34;10495788;27;20048;-64
2022/01/01 16:45:39;;;;;;;12.15;10.88;;;;;;;12.55;83.33;101024.91;10482458;27;20105;-66
2022/01/01 16:50:43;;;;;;;10.73;8.38;;;;;;;12.55;83.19;101019.56;10481342;27;20044;-64
2022/01/01 16:55:44;;;;;;;7.83;7.13;;;;;;;12.44;83.58;101017.69;10489140;27;20555;-64
2022/01/01 17:00:51;;;;;;;13.13;11.73;;;;;;;12.45;83.96;101023.91;10482735;27;20072;-64
2022/01/01 17:05:53;;;;;;;10.10;9.05;;;;;;;12.43;83.74;101025.81;10472110;27;20659;-64
2022/01/01 17:10:55;;;;;;;10.57;9.15;;;;;;;12.42;83.99;101025.00;10475648;27;20768;-64
2022/01/01 17:16:19;;;;;;;11.93;10.25;;;;;;;12.42;84.48;101032.16;10472997;27;20052;-63
2022/01/01 17:21:27;;;;;;;12.30;10.95;;;;;;;12.44;84.38;101017.69;10485667;27;20067;-64
2022/01/01 17:26:32;;;;;;;12.70;10.55;;;;;;;12.41;84.10;101009.94;10488465;27;20047;-63
2022/01/01 17:31:37;;;;;;;12.57;10.32;;;;;;;12.35;83.97;101002.38;10477395;27;20052;-65
2022/01/01 17:41:57;;;;;;;;;;;;;;;12.40;84.58;101016.25;10486760;27;20284;-65
2022/01/01 17:46:59;;;;;;;13.70;12.18;;;;;;;12.36;84.32;101012.94;10464711;27;19927;-65
2022/01/01 17:52:04;;;;;;;15.27;12.63;;;;;;;12.35;84.13;101010.41;10474634;27;20080;-64
2022/01/01 17:57:08;;;;;;;15.32;13.25;;;;;;;12.33;84.05;101007.84;10497242;27;20042;-64
2022/01/01 18:02:11;;;;;;;17.73;14.27;;;;;;;12.38;84.58;101003.03;10484372;27;20048;-64
2022/01/01 18:07:15;;;;;;;17.90;14.02;;;;;;;12.31;83.77;100999.09;10482509;27;20043;-64
2022/01/01 18:12:27;;;;;;;21.02;16.30;;;;;;;12.26;83.91;100995.91;10476901;27;20044;-63
2022/01/01 18:17:37;;;;;;;16.25;14.10;;;;;;;12.19;84.02;100990.22;10480975;27;20047;-63
2022/01/01 18:23:02;;;;;;;15.90;13.13;;;;;;;12.20;84.12;100989.25;10481645;27;20047;-63
2022/01/01 18:28:08;;;;;;;15.00;12.82;;;;;;;12.10;84.54;100974.03;10493913;27;20382;-64
2022/01/01 18:33:09;;;;;;;13.35;12.05;;;;;;;12.09;84.36;100969.69;10471550;27;20057;-63
2022/01/01 18:38:13;;;;;;;15.18;12.02;;;;;;;12.02;84.68;100972.81;10487958;27;20529;-63
2022/01/01 18:43:15;;;;;;;15.38;12.43;;;;;;;11.91;84.70;100959.38;10483590;27;20048;-63
2022/01/01 18:48:17;;;;;;;14.52;13.02;;;;;;;11.93;84.75;100962.81;10471510;27;20055;-63
2022/01/01 18:53:24;;;;;;;14.32;12.50;;;;;;;11.93;84.47;100949.47;10472637;27;20062;-64
2022/01/01 18:58:32;;;;;;;14.52;13.02;;;;;;;11.80;84.81;100943.31;10483090;27;20145;-64
2022/01/01 19:03:34;;;;;;;14.75;13.25;;;;;;;11.81;84.77;100942.34;10502645;27;20521;-63
2022/01/01 19:08:38;;;;;;;17.83;13.93;;;;;;;11.72;85.19;100951.88;10482454;27;20059;-63
2022/01/01 19:13:45;;;;;;;13.25;11.80;;;;;;;11.64;85.54;100947.13;10485425;27;20077;-63
2022/01/01 19:18:49;;;;;;;14.32;12.60;;;;;;;11.61;85.28;100939.34;10458463;27;20048;-64
2022/01/01 19:23:55;;;;;;;13.50;11.68;;;;;;;11.58;85.22;100934.25;10474572;27;20078;-63
2022/01/01 19:29:02;;;;;;;16.80;14.35;;;;;;;11.57;85.21;100929.88;10489361;27;20410;-63
2022/01/01 19:34:07;;;;;;;16.02;13.23;;;;;;;11.58;85.38;100936.09;10497259;27;20075;-63
2022/01/01 19:39:10;;;;;;;15.07;12.45;;;;;;;11.58;85.08;100934.25;10500859;27;20069;-64
2022/01/01 19:44:30;;;;;;;13.77;12.25;;;;;;;11.59;85.00;100943.09;10490385;27;20051;-64
2022/01/01 19:49:49;;;;;;;14.05;12.55;;;;;;;11.60;84.93;100932.31;10489813;27;20059;-64
2022/01/01 19:54:51;;;;;;;15.38;13.77;;;;;;;11.48;84.96;100926.09;10484239;27;20040;-64
2022/01/01 19:59:52;;;;;;;15.57;12.30;;;;;;;11.41;85.08;100919.50;10501176;27;20051;-64
2022/01/01 20:04:53;;;;;;;15.80;13.35;;;;;;;11.40;84.99;100911.63;10482669;27;20058;-64
2022/01/01 20:09:55;;;;;;;15.18;13.57;;;;;;;11.36;85.11;100932.31;10498665;27;20051;-64
2022/01/01 20:14:56;;;;;;;16.83;14.80;;;;;;;11.28;85.64;100916.03;10488254;27;20055;-64
2022/01/01 20:19:58;;;;;;;16.50;14.75;;;;;;;11.34;85.52;100917.41;10475728;27;20559;-65
2022/01/01 20:24:59;;;;;;;18.65;15.68;;;;;;;11.40;85.36;100916.97;10481927;27;20057;-67
2022/01/01 20:30:03;;;;;;;18.33;16.40;;;;;;;11.30;85.06;100906.97;10494722;27;20455;-65
2022/01/01 20:35:05;;;;;;;18.00;16.20;;;;;;;11.26;85.12;100904.63;10483939;27;20043;-65
2022/01/01 20:40:07;;;;;;;19.65;15.85;;;;;;;11.19;85.55;100896.22;10485731;27;20639;-64
2022/01/01 20:45:09;;;;;;;16.73;14.93;;;;;;;11.12;85.48;100892.31;10487698;27;20052;-65
2022/01/01 20:50:10;;;;;;;18.10;13.88;;;;;;;11.20;85.16;100883.75;10482442;27;20044;-65
2022/01/01 20:55:12;;;;;;;15.70;14.02;;;;;;;11.17;84.82;100891.97;10485582;27;20516;-63
2022/01/01 21:00:14;;;;;;;18.77;14.85;;;;;;;11.17;85.13;100889.31;10477653;27;20071;-64
2022/01/01 21:05:20;;;;;;;17.65;14.73;;;;;;;11.13;85.12;100878.88;10495718;27;20047;-63
2022/01/01 21:10:22;;;;;;;16.33;13.18;;;;;;;11.07;85.40;100887.31;10487235;27;20101;-64
2022/01/01 21:15:24;;;;;;;15.77;14.18;;;;;;;11.08;85.13;100880.16;10492034;27;20036;-66
2022/01/01 21:20:25;;;;;;;15.52;13.70;;;;;;;10.95;84.81;100859.75;10485130;27;20132;-63
2022/01/01 21:25:46;;;;;;;15.57;13.88;;;;;;;11.02;85.13;100883.28;10484478;27;20094;-64
2022/01/01 21:30:48;;;;;;;14.98;13.52;;;;;;;10.98;85.18;100868.50;10481621;27;20048;-63
2022/01/01 21:35:49;;;;;;;15.70;14.15;;;;;;;10.91;85.45;100847.63;10492672;27;20051;-66
2022/01/01 21:40:51;;;;;;;17.02;15.15;;;;;;;10.90;85.99;100829.94;10499669;27;20126;-64
2022/01/01 21:45:52;;;;;;;16.23;14.60;;;;;;;10.81;86.36;100813.78;10484343;27;20520;-63
2022/01/01 21:50:54;;;;;;;18.42;14.48;;;;;;;10.86;86.28;100812.47;10484932;27;20051;-63
2022/01/01 21:55:59;;;;;;;14.68;13.18;;;;;;;10.86;85.96;100811.63;10476696;27;20040;-65
2022/01/01 22:01:00;;;;;;;15.38;13.77;;;;;;;10.82;85.76;100810.16;10482843;27;20068;-64
2022/01/01 22:06:02;;;;;;;15.15;13.60;;;;;;;10.81;85.68;100822.63;10487250;27;20514;-64
2022/01/01 22:11:04;;;;;;;15.65;13.70;;;;;;;10.80;86.05;100823.59;10495404;27;20054;-63
2022/01/01 22:16:05;;;;;;;17.95;14.80;;;;;;;10.69;85.91;100828.81;10488324;27;20064;-63
2022/01/01 22:21:07;;;;;;;16.15;13.13;;;;;;;10.74;85.51;100834.69;10493156;27;20043;-64
2022/01/01 22:26:08;;;;;;;14.70;13.20;;;;;;;10.63;85.53;100827.47;10495561;27;20068;-63
2022/01/01 22:31:11;;;;;;;14.40;12.95;;;;;;;10.59;85.63;100845.44;10493878;27;20608;-63
2022/01/01 22:36:12;;;;;;;15.40;13.90;;;;;;;10.55;85.49;100820.03;10489602;27;20181;-63
2022/01/01 22:41:14;;;;;;;16.85;13.90;;;;;;;10.50;85.80;100816.84;10489854;27;20048;-63
2022/01/01 22:46:15;;;;;;;17.10;13.65;;;;;;;10.49;85.48;100817.78;10478807;27;20048;-63
2022/01/01 22:51:16;;;;;;;18.27;14.43;;;;;;;10.49;85.52;100820.44;10490727;27;20093;-63
2022/01/01 22:56:18;;;;;;;15.45;13.75;;;;;;;10.43;85.66;100826.22;10471077;27;20406;-63
2022/01/01 23:01:21;;;;;;;17.10;14.35;;;;;;;10.33;85.54;100819.78;10475913;27;20052;-63
2022/01/01 23:06:23;;;;;;;17.00;15.20;;;;;;;10.30;85.99;100826.22;10472108;27;20197;-66
2022/01/01 23:11:24;;;;;;;16.33;14.57;;;;;;;10.27;85.78;100834.41;10477984;27;20048;-66
2022/01/01 23:16:31;;;;;;;18.42;16.15;;;;;;;10.24;85.98;100816.84;10480136;27;20482;-66